Portada
METAR-TAF:

METAR-TAF

Aeroports :

Brunei, Brunei

latitud: 04-56N, longitud: 114-56E, altitud: 22 m

Observació

L'informe es va fer fa 30 minuts, a les 00:30 UTC
Vent 3 kt del Sud/Sud-Est
Temperatura 30°C
Humitat 79%
Pressió 1012 hPa
Visibilitat 10 km o més
Escasses núvols a una alçada de 1500 ft
Cel ennuvolat a una alçada de 30000 ft

METAR: WBSB 040030Z 16003KT 9999 FEW015 BKN300 30/26 Q1012 NOSIG

Hora: 09:00 (01:00 UTC)

Pronòstic

L'informe es va fer fa 2 hores i 10 minuts, a les 22:50 UTC
Pronòstic vàlid del 04 a les 00 UTC al 05 a les 06 UTC
Vent 3 kt del Sud-Oest
Visibilitat 10 km o més
Escasses núvols a una alçada de 1500 ft
Evolucionant progressivament
l' 04 a les 03 UTC al 04 a les 05 UTC
Vent 8 kt del Nord/Nord-Oest
Escasses núvols a una alçada de 1700 ft
Escasses núvols a una alçada de 1800 ft, Cumulonimbus.

TAF: WBSB 032250Z 0400/0506 22003KT 9999 FEW015 BECMG 0403/0405 33008KT FEW017 FEW018CB

Observacions i pronòstics meteorològics de més de 4000 aeroports (METAR i TAF).

Les estacions disponibles són els punts grocs i vermells al mapa.

Posi el ratolí al punt desitjat per veure el nom de l'estació.

Feu clic per veure les observacions i els pronòstics meteorològics.

Per canviar el mapa: feu clic els botons verds amb una creu de color negre per apropar; al botó verd amb un guió per allunyar la imatge; o en les fletxes verdes per a mapes adjacents.


METAR-TAF: